NDF4029 EDDS-EDDH
Flight info
| Callsign | NDF4029 |
|---|---|
| Flight time | 0h 57m |
| Altitude | 37000 |
| Route | OKIBA4H OKIBA N851 RIMKI Z99 LOHRE DCT MASEK DCT ELNAT/N0449F360 P605 NOLGO NOLGO6A |
| Aircraft | A320/M-SDE3FGHIRWY/LB1 |
Departure
| Time | 2026-04-21 18:37 |
|---|---|
| Airport | Stuttgart Airport (EDDS) |
Arrival
| Time | 2026-04-21 19:34 |
|---|---|
| Airport | Hamburg Helmut Schmidt Airport (EDDH) |
| Time | Latitude | Longitude | Altitude | Speed | Heading |
|---|---|---|---|---|---|
| 2026-04-21 18:08 | 48.68973 | 9.20353 | 1290 ft | 0 kts | 164° |
| 2026-04-21 18:31 | 48.68939 | 9.20369 | 1288 ft | 13 kts | 163° |
| 2026-04-21 18:31 | 48.68889 | 9.20300 | 1288 ft | 9 kts | 253° |
| 2026-04-21 18:31 | 48.68877 | 9.20231 | 1290 ft | 5 kts | 253° |
| 2026-04-21 18:32 | 48.68872 | 9.20206 | 1291 ft | 0 kts | 252° |
| 2026-04-21 18:32 | 48.68861 | 9.20155 | 1292 ft | 8 kts | 253° |
| 2026-04-21 18:32 | 48.68850 | 9.20096 | 1293 ft | 5 kts | 255° |
| 2026-04-21 18:32 | 48.68844 | 9.20062 | 1294 ft | 4 kts | 255° |
| 2026-04-21 18:33 | 48.68799 | 9.19979 | 1294 ft | 12 kts | 198° |
| 2026-04-21 18:33 | 48.68734 | 9.20048 | 1289 ft | 12 kts | 125° |
| 2026-04-21 18:33 | 48.68731 | 9.20056 | 1289 ft | 0 kts | 122° |
| 2026-04-21 18:35 | 48.68728 | 9.20064 | 1289 ft | 2 kts | 117° |
| 2026-04-21 18:35 | 48.68714 | 9.20119 | 1291 ft | 6 kts | 111° |
| 2026-04-21 18:35 | 48.68698 | 9.20202 | 1284 ft | 11 kts | 99° |
| 2026-04-21 18:35 | 48.68681 | 9.20350 | 1276 ft | 17 kts | 98° |
| 2026-04-21 18:36 | 48.68676 | 9.20542 | 1272 ft | 20 kts | 85° |
| 2026-04-21 18:36 | 48.68696 | 9.20657 | 1270 ft | 1 kts | 72° |
| 2026-04-21 18:36 | 48.68734 | 9.20855 | 1272 ft | 54 kts | 73° |
| 2026-04-21 18:36 | 48.68906 | 9.21744 | 1253 ft | 120 kts | 73° |
| 2026-04-21 18:37 | 48.69193 | 9.23192 | 1406 ft | 153 kts | 71° |
| 2026-04-21 18:37 | 48.69481 | 9.24722 | 2164 ft | 150 kts | 73° |
| 2026-04-21 18:37 | 48.69758 | 9.26247 | 2920 ft | 149 kts | 74° |
| 2026-04-21 18:37 | 48.70034 | 9.27770 | 3548 ft | 154 kts | 74° |
| 2026-04-21 18:38 | 48.70341 | 9.29441 | 3870 ft | 176 kts | 74° |
| 2026-04-21 18:38 | 48.70693 | 9.31338 | 4123 ft | 200 kts | 74° |
| 2026-04-21 18:38 | 48.71095 | 9.33483 | 4493 ft | 224 kts | 74° |
| 2026-04-21 18:38 | 48.71543 | 9.35862 | 4929 ft | 244 kts | 74° |
| 2026-04-21 18:39 | 48.72009 | 9.38338 | 5025 ft | 245 kts | 74° |
| 2026-04-21 18:39 | 48.72485 | 9.40852 | 5525 ft | 250 kts | 74° |
| 2026-04-21 18:39 | 48.72967 | 9.43374 | 6520 ft | 250 kts | 74° |
| 2026-04-21 18:39 | 48.73457 | 9.45928 | 7394 ft | 254 kts | 74° |
| 2026-04-21 18:40 | 48.74016 | 9.48494 | 8240 ft | 260 kts | 65° |
| 2026-04-21 18:40 | 48.75097 | 9.50713 | 9042 ft | 267 kts | 43° |
| 2026-04-21 18:40 | 48.76116 | 9.51785 | 9574 ft | 273 kts | 28° |
| 2026-04-21 18:40 | 48.78597 | 9.52580 | 10608 ft | 285 kts | 0° |
| 2026-04-21 18:41 | 48.80656 | 9.52389 | 10897 ft | 308 kts | 358° |
| 2026-04-21 18:41 | 48.82870 | 9.52235 | 11203 ft | 326 kts | 4° |
| 2026-04-21 18:41 | 48.85158 | 9.52434 | 11847 ft | 332 kts | 5° |
| 2026-04-21 18:41 | 48.87470 | 9.52699 | 12603 ft | 335 kts | 6° |
| 2026-04-21 18:42 | 48.89807 | 9.52999 | 13344 ft | 338 kts | 6° |
| 2026-04-21 18:42 | 48.92163 | 9.53312 | 14060 ft | 342 kts | 6° |
| 2026-04-21 18:42 | 48.94545 | 9.53631 | 14695 ft | 345 kts | 6° |
| 2026-04-21 18:42 | 48.96949 | 9.53947 | 15349 ft | 348 kts | 6° |
| 2026-04-21 18:43 | 48.99374 | 9.54256 | 16006 ft | 351 kts | 5° |
| 2026-04-21 18:43 | 49.01827 | 9.54562 | 16653 ft | 354 kts | 5° |
| 2026-04-21 18:43 | 49.04294 | 9.54864 | 17294 ft | 357 kts | 5° |
| 2026-04-21 18:43 | 49.06746 | 9.55165 | 17918 ft | 360 kts | 5° |
| 2026-04-21 18:44 | 49.09252 | 9.55476 | 18533 ft | 363 kts | 4° |
| 2026-04-21 18:44 | 49.11778 | 9.55789 | 19069 ft | 365 kts | 4° |
| 2026-04-21 18:44 | 49.14319 | 9.56103 | 19618 ft | 368 kts | 5° |
| 2026-04-21 18:44 | 49.16879 | 9.56423 | 20161 ft | 370 kts | 5° |
| 2026-04-21 18:45 | 49.19452 | 9.56745 | 20689 ft | 372 kts | 4° |
| 2026-04-21 18:45 | 49.22043 | 9.57067 | 21210 ft | 375 kts | 4° |
| 2026-04-21 18:45 | 49.24648 | 9.57391 | 21721 ft | 377 kts | 4° |
| 2026-04-21 18:45 | 49.27279 | 9.57720 | 22227 ft | 380 kts | 4° |
| 2026-04-21 18:46 | 49.29921 | 9.58051 | 22718 ft | 382 kts | 4° |
| 2026-04-21 18:46 | 49.32581 | 9.58385 | 23203 ft | 385 kts | 4° |
| 2026-04-21 18:46 | 49.35263 | 9.58724 | 23689 ft | 388 kts | 4° |
| 2026-04-21 18:46 | 49.37965 | 9.59066 | 24078 ft | 391 kts | 4° |
| 2026-04-21 18:47 | 49.40678 | 9.59408 | 24469 ft | 393 kts | 4° |
| 2026-04-21 18:47 | 49.43413 | 9.59750 | 24852 ft | 395 kts | 4° |
| 2026-04-21 18:47 | 49.46164 | 9.60093 | 25232 ft | 397 kts | 4° |
| 2026-04-21 18:47 | 49.48929 | 9.60441 | 25613 ft | 400 kts | 4° |
| 2026-04-21 18:48 | 49.51707 | 9.60796 | 25979 ft | 402 kts | 4° |
| 2026-04-21 18:48 | 49.54501 | 9.61154 | 26347 ft | 404 kts | 4° |
| 2026-04-21 18:48 | 49.57315 | 9.61515 | 26711 ft | 406 kts | 5° |
| 2026-04-21 18:48 | 49.60142 | 9.61868 | 27072 ft | 408 kts | 5° |
| 2026-04-21 18:49 | 49.62984 | 9.62222 | 27429 ft | 411 kts | 5° |
| 2026-04-21 18:49 | 49.65839 | 9.62583 | 27785 ft | 413 kts | 5° |
| 2026-04-21 18:49 | 49.67739 | 9.62826 | 28025 ft | 414 kts | 5° |
| 2026-04-21 18:49 | 49.71596 | 9.63324 | 28484 ft | 417 kts | 5° |
| 2026-04-21 18:50 | 49.74460 | 9.63692 | 28819 ft | 419 kts | 5° |
| 2026-04-21 18:50 | 49.77374 | 9.64062 | 29154 ft | 422 kts | 5° |
| 2026-04-21 18:50 | 49.80312 | 9.64430 | 29465 ft | 424 kts | 5° |
| 2026-04-21 18:50 | 49.83266 | 9.64799 | 29741 ft | 427 kts | 5° |
| 2026-04-21 18:51 | 49.86234 | 9.65177 | 30032 ft | 429 kts | 5° |
| 2026-04-21 18:51 | 49.89219 | 9.65565 | 30317 ft | 431 kts | 5° |
| 2026-04-21 18:51 | 49.92212 | 9.65955 | 30566 ft | 433 kts | 5° |
| 2026-04-21 18:51 | 49.95220 | 9.66348 | 30812 ft | 435 kts | 5° |
| 2026-04-21 18:52 | 49.98241 | 9.66742 | 31048 ft | 436 kts | 5° |
| 2026-04-21 18:52 | 50.01279 | 9.67135 | 31298 ft | 438 kts | 5° |
| 2026-04-21 18:52 | 50.04311 | 9.67524 | 31612 ft | 437 kts | 6° |
| 2026-04-21 18:52 | 50.07349 | 9.67915 | 31935 ft | 437 kts | 6° |
| 2026-04-21 18:53 | 50.10383 | 9.68307 | 32264 ft | 437 kts | 6° |
| 2026-04-21 18:53 | 50.13409 | 9.68699 | 32599 ft | 436 kts | 6° |
| 2026-04-21 18:53 | 50.16432 | 9.69090 | 32927 ft | 436 kts | 5° |
| 2026-04-21 18:53 | 50.19414 | 9.69474 | 33253 ft | 435 kts | 5° |
| 2026-04-21 18:54 | 50.22434 | 9.69860 | 33582 ft | 435 kts | 5° |
| 2026-04-21 18:54 | 50.25448 | 9.70249 | 33894 ft | 435 kts | 5° |
| 2026-04-21 18:54 | 50.28465 | 9.70643 | 34154 ft | 436 kts | 5° |
| 2026-04-21 18:54 | 50.31491 | 9.71041 | 34279 ft | 437 kts | 5° |
| 2026-04-21 18:55 | 50.33497 | 9.71306 | 34470 ft | 436 kts | 5° |
| 2026-04-21 18:55 | 50.37536 | 9.71836 | 34848 ft | 435 kts | 5° |
| 2026-04-21 18:55 | 50.40554 | 9.72230 | 35107 ft | 435 kts | 5° |
| 2026-04-21 18:55 | 50.43566 | 9.72625 | 35351 ft | 435 kts | 5° |
| 2026-04-21 18:56 | 50.46584 | 9.73023 | 35591 ft | 435 kts | 5° |
| 2026-04-21 18:56 | 50.49608 | 9.73425 | 35814 ft | 435 kts | 5° |
| 2026-04-21 18:56 | 50.51607 | 9.73690 | 35955 ft | 435 kts | 5° |
| 2026-04-21 18:56 | 50.54625 | 9.74085 | 36166 ft | 436 kts | 5° |
| 2026-04-21 18:57 | 50.57647 | 9.74480 | 36259 ft | 436 kts | 5° |
| 2026-04-21 18:57 | 50.63692 | 9.75278 | 36269 ft | 435 kts | 5° |
| 2026-04-21 18:58 | 50.69741 | 9.76080 | 36270 ft | 435 kts | 5° |
| 2026-04-21 18:58 | 50.75776 | 9.76888 | 36268 ft | 435 kts | 5° |
| 2026-04-21 18:59 | 50.81814 | 9.77698 | 36268 ft | 435 kts | 5° |
| 2026-04-21 18:59 | 50.87851 | 9.78505 | 36268 ft | 435 kts | 5° |
| 2026-04-21 19:00 | 50.93886 | 9.79315 | 36271 ft | 435 kts | 6° |
| 2026-04-21 19:00 | 50.99923 | 9.80122 | 36277 ft | 435 kts | 6° |
| 2026-04-21 19:01 | 51.05919 | 9.80935 | 36280 ft | 435 kts | 6° |
| 2026-04-21 19:01 | 51.11961 | 9.81756 | 36280 ft | 435 kts | 6° |
| 2026-04-21 19:02 | 51.18000 | 9.82572 | 36274 ft | 435 kts | 6° |
| 2026-04-21 19:02 | 51.24041 | 9.83390 | 36282 ft | 436 kts | 6° |
| 2026-04-21 19:03 | 51.30093 | 9.84206 | 36287 ft | 436 kts | 6° |
| 2026-04-21 19:03 | 51.36138 | 9.85029 | 36286 ft | 436 kts | 6° |
| 2026-04-21 19:04 | 51.42190 | 9.85864 | 36284 ft | 436 kts | 7° |
| 2026-04-21 19:04 | 51.48232 | 9.86696 | 36286 ft | 436 kts | 7° |
| 2026-04-21 19:05 | 51.54275 | 9.87531 | 36293 ft | 436 kts | 7° |
| 2026-04-21 19:05 | 51.60281 | 9.88353 | 36299 ft | 436 kts | 7° |
| 2026-04-21 19:06 | 51.66326 | 9.89176 | 36296 ft | 435 kts | 7° |
| 2026-04-21 19:06 | 51.72354 | 9.90017 | 36301 ft | 435 kts | 7° |
| 2026-04-21 19:07 | 51.78385 | 9.90865 | 36306 ft | 435 kts | 7° |
| 2026-04-21 19:07 | 51.84415 | 9.91699 | 36305 ft | 435 kts | 7° |
| 2026-04-21 19:08 | 51.90443 | 9.92551 | 36303 ft | 434 kts | 7° |
| 2026-04-21 19:08 | 51.96454 | 9.93400 | 36316 ft | 433 kts | 7° |
| 2026-04-21 19:09 | 52.02459 | 9.94234 | 36310 ft | 433 kts | 7° |
| 2026-04-21 19:09 | 52.08432 | 9.95078 | 36308 ft | 433 kts | 7° |
| 2026-04-21 19:10 | 52.14435 | 9.95931 | 36317 ft | 432 kts | 7° |
| 2026-04-21 19:10 | 52.17427 | 9.96352 | 35994 ft | 432 kts | 8° |
| 2026-04-21 19:10 | 52.20454 | 9.96781 | 34927 ft | 441 kts | 8° |
| 2026-04-21 19:10 | 52.23532 | 9.97219 | 34022 ft | 446 kts | 9° |
| 2026-04-21 19:11 | 52.26620 | 9.97657 | 33265 ft | 444 kts | 9° |
| 2026-04-21 19:11 | 52.29692 | 9.98091 | 32495 ft | 442 kts | 9° |
| 2026-04-21 19:11 | 52.32750 | 9.98524 | 31793 ft | 438 kts | 9° |
| 2026-04-21 19:11 | 52.35762 | 9.98950 | 30790 ft | 430 kts | 10° |
| 2026-04-21 19:12 | 52.38711 | 9.99367 | 29685 ft | 422 kts | 10° |
| 2026-04-21 19:12 | 52.41621 | 9.99782 | 28536 ft | 415 kts | 10° |
| 2026-04-21 19:12 | 52.44474 | 10.00187 | 27462 ft | 408 kts | 10° |
| 2026-04-21 19:12 | 52.47264 | 10.00583 | 26789 ft | 394 kts | 11° |
| 2026-04-21 19:13 | 52.49928 | 10.00953 | 26348 ft | 375 kts | 11° |
| 2026-04-21 19:13 | 52.52441 | 10.01302 | 25912 ft | 359 kts | 11° |
| 2026-04-21 19:13 | 52.54874 | 10.01680 | 25492 ft | 342 kts | 15° |
| 2026-04-21 19:13 | 52.57173 | 10.02545 | 25313 ft | 342 kts | 22° |
| 2026-04-21 19:14 | 52.59480 | 10.03612 | 25323 ft | 347 kts | 21° |
| 2026-04-21 19:14 | 52.61828 | 10.04674 | 25334 ft | 355 kts | 21° |
| 2026-04-21 19:14 | 52.64241 | 10.05757 | 25327 ft | 362 kts | 21° |
| 2026-04-21 19:14 | 52.66679 | 10.06841 | 25327 ft | 364 kts | 20° |
| 2026-04-21 19:15 | 52.69126 | 10.07928 | 25321 ft | 364 kts | 21° |
| 2026-04-21 19:15 | 52.71567 | 10.09012 | 24486 ft | 364 kts | 20° |
| 2026-04-21 19:15 | 52.74041 | 10.10120 | 23103 ft | 371 kts | 20° |
| 2026-04-21 19:15 | 52.76528 | 10.11231 | 21950 ft | 370 kts | 19° |
| 2026-04-21 19:16 | 52.79101 | 10.11815 | 21087 ft | 377 kts | 6° |
| 2026-04-21 19:16 | 52.81682 | 10.11870 | 20503 ft | 376 kts | 6° |
| 2026-04-21 19:16 | 52.84279 | 10.11944 | 20009 ft | 371 kts | 6° |
| 2026-04-21 19:16 | 52.86853 | 10.12031 | 19504 ft | 368 kts | 6° |
| 2026-04-21 19:17 | 52.91941 | 10.12222 | 18534 ft | 363 kts | 6° |
| 2026-04-21 19:17 | 52.94459 | 10.12315 | 18032 ft | 360 kts | 6° |
| 2026-04-21 19:17 | 52.96950 | 10.12401 | 17568 ft | 356 kts | 6° |
| 2026-04-21 19:18 | 52.99419 | 10.12478 | 17104 ft | 353 kts | 5° |
| 2026-04-21 19:18 | 53.01853 | 10.12552 | 16790 ft | 346 kts | 6° |
| 2026-04-21 19:18 | 53.04233 | 10.12628 | 16531 ft | 338 kts | 6° |
| 2026-04-21 19:18 | 53.06561 | 10.12706 | 16270 ft | 332 kts | 6° |
| 2026-04-21 19:19 | 53.08862 | 10.12785 | 16011 ft | 330 kts | 6° |
| 2026-04-21 19:19 | 53.11151 | 10.12864 | 15761 ft | 328 kts | 6° |
| 2026-04-21 19:19 | 53.13430 | 10.12942 | 15515 ft | 327 kts | 6° |
| 2026-04-21 19:19 | 53.15700 | 10.13021 | 15260 ft | 326 kts | 6° |
| 2026-04-21 19:20 | 53.17960 | 10.13098 | 15012 ft | 324 kts | 6° |
| 2026-04-21 19:20 | 53.20212 | 10.13174 | 14766 ft | 323 kts | 5° |
| 2026-04-21 19:20 | 53.22452 | 10.13251 | 14523 ft | 319 kts | 6° |
| 2026-04-21 19:20 | 53.24661 | 10.13328 | 14168 ft | 316 kts | 5° |
| 2026-04-21 19:21 | 53.26858 | 10.13401 | 13731 ft | 315 kts | 5° |
| 2026-04-21 19:21 | 53.29044 | 10.13471 | 13324 ft | 313 kts | 5° |
| 2026-04-21 19:21 | 53.31186 | 10.13543 | 12910 ft | 311 kts | 5° |
| 2026-04-21 19:21 | 53.33368 | 10.13619 | 12388 ft | 313 kts | 5° |
| 2026-04-21 19:22 | 53.35519 | 10.13690 | 12079 ft | 307 kts | 5° |
| 2026-04-21 19:22 | 53.37655 | 10.13479 | 11677 ft | 310 kts | 353° |
| 2026-04-21 19:22 | 53.39713 | 10.12346 | 11265 ft | 314 kts | 337° |
| 2026-04-21 19:22 | 53.41539 | 10.10291 | 10960 ft | 320 kts | 321° |
| 2026-04-21 19:23 | 53.43075 | 10.07578 | 10641 ft | 321 kts | 315° |
| 2026-04-21 19:23 | 53.44544 | 10.04841 | 10511 ft | 310 kts | 315° |
| 2026-04-21 19:23 | 53.45962 | 10.02200 | 10360 ft | 300 kts | 315° |
| 2026-04-21 19:23 | 53.47347 | 9.99630 | 10135 ft | 290 kts | 315° |
| 2026-04-21 19:24 | 53.48425 | 9.96905 | 9972 ft | 275 kts | 293° |
| 2026-04-21 19:24 | 53.48720 | 9.93804 | 9672 ft | 269 kts | 267° |
| 2026-04-21 19:24 | 53.48186 | 9.90786 | 8994 ft | 273 kts | 237° |
| 2026-04-21 19:24 | 53.47016 | 9.88272 | 8333 ft | 274 kts | 228° |
| 2026-04-21 19:25 | 53.45783 | 9.85826 | 7689 ft | 275 kts | 229° |
| 2026-04-21 19:25 | 53.44550 | 9.83374 | 7061 ft | 275 kts | 229° |
| 2026-04-21 19:25 | 53.43316 | 9.80917 | 6405 ft | 275 kts | 229° |
| 2026-04-21 19:25 | 53.42085 | 9.78460 | 5748 ft | 274 kts | 229° |
| 2026-04-21 19:26 | 53.40862 | 9.76019 | 5101 ft | 273 kts | 229° |
| 2026-04-21 19:26 | 53.39664 | 9.73625 | 4576 ft | 266 kts | 229° |
| 2026-04-21 19:26 | 53.38707 | 9.70955 | 4047 ft | 269 kts | 253° |
| 2026-04-21 19:26 | 53.38584 | 9.67918 | 3411 ft | 266 kts | 283° |
| 2026-04-21 19:27 | 53.39371 | 9.65196 | 3059 ft | 260 kts | 315° |
| 2026-04-21 19:27 | 53.40793 | 9.63379 | 3006 ft | 257 kts | 338° |
| 2026-04-21 19:27 | 53.42498 | 9.62608 | 3012 ft | 254 kts | 359° |
| 2026-04-21 19:27 | 53.44220 | 9.62940 | 3029 ft | 243 kts | 20° |
| 2026-04-21 19:28 | 53.45647 | 9.64182 | 3028 ft | 222 kts | 40° |
| 2026-04-21 19:28 | 53.46676 | 9.65958 | 3035 ft | 205 kts | 52° |
| 2026-04-21 19:28 | 53.47568 | 9.67738 | 3032 ft | 194 kts | 52° |
| 2026-04-21 19:28 | 53.48409 | 9.69415 | 3048 ft | 180 kts | 52° |
| 2026-04-21 19:29 | 53.49185 | 9.70966 | 3045 ft | 169 kts | 52° |
| 2026-04-21 19:29 | 53.49933 | 9.72463 | 3037 ft | 166 kts | 52° |
| 2026-04-21 19:29 | 53.50673 | 9.73945 | 3037 ft | 165 kts | 52° |
| 2026-04-21 19:29 | 53.51408 | 9.75418 | 3038 ft | 164 kts | 52° |
| 2026-04-21 19:30 | 53.52141 | 9.76885 | 3023 ft | 164 kts | 52° |
| 2026-04-21 19:30 | 53.52876 | 9.78359 | 2886 ft | 164 kts | 52° |
| 2026-04-21 19:30 | 53.53605 | 9.79821 | 2689 ft | 163 kts | 52° |
| 2026-04-21 19:30 | 53.54330 | 9.81277 | 2481 ft | 162 kts | 52° |
| 2026-04-21 19:31 | 53.55051 | 9.82725 | 2258 ft | 161 kts | 52° |
| 2026-04-21 19:31 | 53.55765 | 9.84159 | 2042 ft | 159 kts | 52° |
| 2026-04-21 19:31 | 53.56472 | 9.85582 | 1813 ft | 158 kts | 52° |
| 2026-04-21 19:31 | 53.57176 | 9.86998 | 1595 ft | 156 kts | 51° |
| 2026-04-21 19:32 | 53.57855 | 9.88365 | 1385 ft | 148 kts | 51° |
| 2026-04-21 19:32 | 53.58491 | 9.89644 | 1210 ft | 136 kts | 51° |
| 2026-04-21 19:32 | 53.59084 | 9.90847 | 979 ft | 132 kts | 52° |
| 2026-04-21 19:32 | 53.59658 | 9.92034 | 755 ft | 130 kts | 50° |
| 2026-04-21 19:33 | 53.60045 | 9.92800 | 682 ft | 130 kts | 49° |
| 2026-04-21 19:33 | 53.60828 | 9.94358 | 440 ft | 130 kts | 50° |
| 2026-04-21 19:33 | 53.61404 | 9.95518 | 303 ft | 132 kts | 50° |
| 2026-04-21 19:33 | 53.61992 | 9.96698 | 124 ft | 129 kts | 50° |
| 2026-04-21 19:34 | 53.62549 | 9.97826 | 42 ft | 119 kts | 50° |
| 2026-04-21 19:34 | 53.62910 | 9.98539 | 44 ft | 35 kts | 50° |
| 2026-04-21 19:34 | 53.63016 | 9.98763 | 45 ft | 24 kts | 52° |
| 2026-04-21 19:34 | 53.63118 | 9.98987 | 46 ft | 25 kts | 52° |
| 2026-04-21 19:35 | 53.63228 | 9.99211 | 47 ft | 25 kts | 51° |
| 2026-04-21 19:35 | 53.63275 | 9.99660 | 48 ft | 7 kts | 99° |
| 2026-04-21 19:35 | 53.63274 | 9.99685 | 48 ft | 0 kts | 95° |
| 2026-04-21 19:36 | 53.63261 | 9.99722 | 46 ft | 7 kts | 134° |
| 2026-04-21 19:36 | 53.63194 | 9.99785 | 48 ft | 15 kts | 153° |
| 2026-04-21 19:36 | 53.63123 | 9.99922 | 48 ft | 13 kts | 82° |
| 2026-04-21 19:37 | 53.63165 | 10.00005 | 48 ft | 12 kts | 48° |
| 2026-04-21 19:37 | 53.63230 | 10.00141 | 48 ft | 13 kts | 56° |
| 2026-04-21 19:37 | 53.63243 | 10.00237 | 48 ft | 6 kts | 99° |
| 2026-04-21 19:37 | 53.63244 | 10.00330 | 48 ft | 5 kts | 86° |
| 2026-04-21 19:38 | 53.63244 | 10.00347 | 48 ft | 0 kts | 86° |
| 2026-04-21 19:38 | 53.63245 | 10.00357 | 48 ft | 0 kts | 86° |
| 2026-04-21 19:38 | 53.63245 | 10.00358 | 48 ft | 0 kts | 86° |